sensor_id;sensor_type;location;lat;lon;timestamp;P1;durP1;ratioP1;P2;durP2;ratioP2
17228;SDS011;8731;50.364;8.958;2023-08-17T00:03:30;2.50;;;1.83;;
17228;SDS011;8731;50.364;8.958;2023-08-17T00:07:56;4.57;;;2.20;;
17228;SDS011;8731;50.364;8.958;2023-08-17T00:12:25;3.57;;;1.90;;
17228;SDS011;8731;50.364;8.958;2023-08-17T00:16:53;5.23;;;2.23;;
17228;SDS011;8731;50.364;8.958;2023-08-17T00:21:19;2.23;;;2.00;;
17228;SDS011;8731;50.364;8.958;2023-08-17T00:25:49;2.97;;;2.03;;
17228;SDS011;8731;50.364;8.958;2023-08-17T00:30:27;3.50;;;2.37;;
17228;SDS011;8731;50.364;8.958;2023-08-17T00:34:50;5.07;;;2.30;;
17228;SDS011;8731;50.364;8.958;2023-08-17T00:39:28;2.83;;;2.00;;
17228;SDS011;8731;50.364;8.958;2023-08-17T00:43:53;3.17;;;2.33;;
17228;SDS011;8731;50.364;8.958;2023-08-17T00:48:23;5.53;;;2.47;;
17228;SDS011;8731;50.364;8.958;2023-08-17T00:52:49;4.37;;;2.70;;
17228;SDS011;8731;50.364;8.958;2023-08-17T00:57:16;4.40;;;2.80;;
17228;SDS011;8731;50.364;8.958;2023-08-17T01:01:45;4.27;;;2.83;;
17228;SDS011;8731;50.364;8.958;2023-08-17T01:06:14;5.67;;;3.30;;
17228;SDS011;8731;50.364;8.958;2023-08-17T01:10:52;7.83;;;4.37;;
17228;SDS011;8731;50.364;8.958;2023-08-17T01:15:39;11.80;;;5.30;;
17228;SDS011;8731;50.364;8.958;2023-08-17T01:20:13;5.47;;;4.23;;
17228;SDS011;8731;50.364;8.958;2023-08-17T01:24:47;6.10;;;3.80;;
17228;SDS011;8731;50.364;8.958;2023-08-17T01:29:20;3.33;;;2.70;;
17228;SDS011;8731;50.364;8.958;2023-08-17T01:33:47;3.97;;;2.67;;
17228;SDS011;8731;50.364;8.958;2023-08-17T01:38:18;3.67;;;2.83;;
17228;SDS011;8731;50.364;8.958;2023-08-17T01:42:50;4.53;;;2.97;;
17228;SDS011;8731;50.364;8.958;2023-08-17T01:51:54;3.80;;;3.40;;
17228;SDS011;8731;50.364;8.958;2023-08-17T01:56:24;4.60;;;4.13;;
17228;SDS011;8731;50.364;8.958;2023-08-17T02:00:54;4.57;;;3.97;;
17228;SDS011;8731;50.364;8.958;2023-08-17T02:05:26;5.90;;;4.30;;
17228;SDS011;8731;50.364;8.958;2023-08-17T02:09:53;4.23;;;3.83;;
17228;SDS011;8731;50.364;8.958;2023-08-17T02:14:20;6.27;;;3.57;;
17228;SDS011;8731;50.364;8.958;2023-08-17T02:18:49;4.90;;;3.90;;
17228;SDS011;8731;50.364;8.958;2023-08-17T02:23:13;3.87;;;3.43;;
17228;SDS011;8731;50.364;8.958;2023-08-17T02:27:46;3.50;;;3.20;;
17228;SDS011;8731;50.364;8.958;2023-08-17T02:32:12;5.67;;;3.20;;
17228;SDS011;8731;50.364;8.958;2023-08-17T02:36:40;11.17;;;4.00;;
17228;SDS011;8731;50.364;8.958;2023-08-17T02:41:03;7.10;;;3.30;;
17228;SDS011;8731;50.364;8.958;2023-08-17T02:45:27;4.87;;;3.40;;
17228;SDS011;8731;50.364;8.958;2023-08-17T02:49:54;7.63;;;4.10;;
17228;SDS011;8731;50.364;8.958;2023-08-17T02:54:24;7.83;;;3.77;;
17228;SDS011;8731;50.364;8.958;2023-08-17T02:58:55;5.63;;;4.03;;
17228;SDS011;8731;50.364;8.958;2023-08-17T03:03:18;4.93;;;3.73;;
17228;SDS011;8731;50.364;8.958;2023-08-17T03:07:44;6.33;;;3.90;;
17228;SDS011;8731;50.364;8.958;2023-08-17T03:12:20;7.00;;;3.83;;
17228;SDS011;8731;50.364;8.958;2023-08-17T03:16:43;6.17;;;4.00;;
17228;SDS011;8731;50.364;8.958;2023-08-17T03:21:13;7.10;;;5.03;;
17228;SDS011;8731;50.364;8.958;2023-08-17T03:25:42;8.80;;;6.37;;
17228;SDS011;8731;50.364;8.958;2023-08-17T03:30:10;8.03;;;6.43;;
17228;SDS011;8731;50.364;8.958;2023-08-17T03:34:38;8.77;;;6.90;;
17228;SDS011;8731;50.364;8.958;2023-08-17T03:39:05;24.80;;;7.70;;
17228;SDS011;8731;50.364;8.958;2023-08-17T03:43:35;9.17;;;7.57;;
17228;SDS011;8731;50.364;8.958;2023-08-17T03:48:01;7.87;;;7.07;;
17228;SDS011;8731;50.364;8.958;2023-08-17T03:52:30;8.60;;;7.70;;
17228;SDS011;8731;50.364;8.958;2023-08-17T03:56:56;26.07;;;8.43;;
17228;SDS011;8731;50.364;8.958;2023-08-17T04:01:28;10.63;;;6.00;;
17228;SDS011;8731;50.364;8.958;2023-08-17T04:05:52;5.73;;;5.00;;
17228;SDS011;8731;50.364;8.958;2023-08-17T04:10:23;5.00;;;4.60;;
17228;SDS011;8731;50.364;8.958;2023-08-17T04:14:47;8.00;;;6.30;;
17228;SDS011;8731;50.364;8.958;2023-08-17T04:19:11;6.63;;;5.53;;
17228;SDS011;8731;50.364;8.958;2023-08-17T04:23:38;7.37;;;5.40;;
17228;SDS011;8731;50.364;8.958;2023-08-17T04:28:08;6.50;;;5.27;;
17228;SDS011;8731;50.364;8.958;2023-08-17T04:32:32;9.20;;;6.00;;
17228;SDS011;8731;50.364;8.958;2023-08-17T04:37:10;6.60;;;6.00;;
17228;SDS011;8731;50.364;8.958;2023-08-17T04:41:53;6.70;;;5.77;;
17228;SDS011;8731;50.364;8.958;2023-08-17T04:46:28;5.17;;;4.63;;
17228;SDS011;8731;50.364;8.958;2023-08-17T04:50:55;8.13;;;4.23;;
17228;SDS011;8731;50.364;8.958;2023-08-17T04:55:28;7.63;;;5.03;;
17228;SDS011;8731;50.364;8.958;2023-08-17T05:00:02;10.10;;;5.13;;
17228;SDS011;8731;50.364;8.958;2023-08-17T05:04:29;8.80;;;6.17;;
17228;SDS011;8731;50.364;8.958;2023-08-17T05:08:58;12.43;;;6.70;;
17228;SDS011;8731;50.364;8.958;2023-08-17T05:13:29;9.37;;;6.37;;
17228;SDS011;8731;50.364;8.958;2023-08-17T05:17:57;10.53;;;6.70;;
17228;SDS011;8731;50.364;8.958;2023-08-17T05:22:27;11.90;;;8.73;;
17228;SDS011;8731;50.364;8.958;2023-08-17T05:26:51;9.53;;;7.43;;
17228;SDS011;8731;50.364;8.958;2023-08-17T05:31:17;12.13;;;6.70;;
17228;SDS011;8731;50.364;8.958;2023-08-17T05:35:46;10.10;;;7.07;;
17228;SDS011;8731;50.364;8.958;2023-08-17T05:40:18;12.37;;;7.50;;
17228;SDS011;8731;50.364;8.958;2023-08-17T05:44:41;15.63;;;8.07;;
17228;SDS011;8731;50.364;8.958;2023-08-17T05:49:08;9.87;;;6.60;;
17228;SDS011;8731;50.364;8.958;2023-08-17T05:53:32;8.67;;;5.83;;
17228;SDS011;8731;50.364;8.958;2023-08-17T05:57:57;9.63;;;5.97;;
17228;SDS011;8731;50.364;8.958;2023-08-17T06:02:21;11.00;;;6.17;;
17228;SDS011;8731;50.364;8.958;2023-08-17T06:07:03;8.37;;;6.10;;
17228;SDS011;8731;50.364;8.958;2023-08-17T06:11:33;8.70;;;6.00;;
17228;SDS011;8731;50.364;8.958;2023-08-17T06:16:10;6.70;;;5.30;;
17228;SDS011;8731;50.364;8.958;2023-08-17T06:20:34;7.03;;;5.00;;
17228;SDS011;8731;50.364;8.958;2023-08-17T06:25:02;6.10;;;4.30;;
17228;SDS011;8731;50.364;8.958;2023-08-17T06:29:30;6.50;;;4.00;;
17228;SDS011;8731;50.364;8.958;2023-08-17T06:33:59;6.37;;;5.17;;
17228;SDS011;8731;50.364;8.958;2023-08-17T06:38:21;6.93;;;4.67;;
17228;SDS011;8731;50.364;8.958;2023-08-17T06:42:44;5.67;;;4.37;;
17228;SDS011;8731;50.364;8.958;2023-08-17T06:47:08;5.40;;;3.90;;
17228;SDS011;8731;50.364;8.958;2023-08-17T06:51:30;6.03;;;4.27;;
17228;SDS011;8731;50.364;8.958;2023-08-17T06:55:53;6.33;;;4.43;;
17228;SDS011;8731;50.364;8.958;2023-08-17T07:00:16;4.70;;;3.60;;
17228;SDS011;8731;50.364;8.958;2023-08-17T07:04:42;5.10;;;4.00;;
17228;SDS011;8731;50.364;8.958;2023-08-17T07:09:04;6.33;;;4.00;;
17228;SDS011;8731;50.364;8.958;2023-08-17T07:13:27;4.00;;;3.43;;
17228;SDS011;8731;50.364;8.958;2023-08-17T07:17:50;5.33;;;4.03;;
17228;SDS011;8731;50.364;8.958;2023-08-17T07:22:14;3.53;;;3.00;;
17228;SDS011;8731;50.364;8.958;2023-08-17T07:26:37;4.20;;;3.07;;
17228;SDS011;8731;50.364;8.958;2023-08-17T07:30:59;3.60;;;2.87;;
17228;SDS011;8731;50.364;8.958;2023-08-17T07:35:22;4.87;;;3.20;;
17228;SDS011;8731;50.364;8.958;2023-08-17T07:39:46;2.57;;;2.37;;
17228;SDS011;8731;50.364;8.958;2023-08-17T07:44:08;5.50;;;2.70;;
17228;SDS011;8731;50.364;8.958;2023-08-17T07:48:31;4.00;;;3.17;;
17228;SDS011;8731;50.364;8.958;2023-08-17T07:52:54;3.07;;;2.80;;
17228;SDS011;8731;50.364;8.958;2023-08-17T07:57:18;5.40;;;3.53;;
17228;SDS011;8731;50.364;8.958;2023-08-17T08:01:41;4.43;;;3.20;;
17228;SDS011;8731;50.364;8.958;2023-08-17T08:06:03;5.07;;;3.50;;
17228;SDS011;8731;50.364;8.958;2023-08-17T08:10:26;3.03;;;2.83;;
17228;SDS011;8731;50.364;8.958;2023-08-17T08:14:51;3.53;;;2.60;;
17228;SDS011;8731;50.364;8.958;2023-08-17T08:19:15;5.73;;;3.53;;
17228;SDS011;8731;50.364;8.958;2023-08-17T08:23:37;3.03;;;2.73;;
17228;SDS011;8731;50.364;8.958;2023-08-17T08:28:00;7.03;;;2.90;;
17228;SDS011;8731;50.364;8.958;2023-08-17T08:32:24;4.30;;;2.37;;
17228;SDS011;8731;50.364;8.958;2023-08-17T08:36:46;4.53;;;2.33;;
17228;SDS011;8731;50.364;8.958;2023-08-17T08:41:11;3.00;;;2.70;;
17228;SDS011;8731;50.364;8.958;2023-08-17T08:45:35;2.83;;;2.40;;
17228;SDS011;8731;50.364;8.958;2023-08-17T08:50:03;2.50;;;2.10;;
17228;SDS011;8731;50.364;8.958;2023-08-17T08:54:27;2.20;;;2.00;;
17228;SDS011;8731;50.364;8.958;2023-08-17T08:58:54;2.77;;;1.90;;
17228;SDS011;8731;50.364;8.958;2023-08-17T09:03:18;2.00;;;1.80;;
17228;SDS011;8731;50.364;8.958;2023-08-17T09:07:44;6.50;;;2.10;;
17228;SDS011;8731;50.364;8.958;2023-08-17T09:12:10;2.37;;;1.77;;
17228;SDS011;8731;50.364;8.958;2023-08-17T09:16:33;3.73;;;2.00;;
17228;SDS011;8731;50.364;8.958;2023-08-17T09:20:56;3.33;;;2.20;;
17228;SDS011;8731;50.364;8.958;2023-08-17T09:25:22;2.40;;;2.20;;
17228;SDS011;8731;50.364;8.958;2023-08-17T09:29:45;2.10;;;2.00;;
17228;SDS011;8731;50.364;8.958;2023-08-17T09:34:07;2.10;;;1.70;;
17228;SDS011;8731;50.364;8.958;2023-08-17T09:38:30;4.00;;;1.50;;
17228;SDS011;8731;50.364;8.958;2023-08-17T09:42:56;1.53;;;1.43;;
17228;SDS011;8731;50.364;8.958;2023-08-17T09:47:19;1.90;;;1.40;;
17228;SDS011;8731;50.364;8.958;2023-08-17T09:51:43;1.40;;;1.10;;
17228;SDS011;8731;50.364;8.958;2023-08-17T09:56:06;1.77;;;1.30;;
17228;SDS011;8731;50.364;8.958;2023-08-17T10:00:32;2.43;;;1.30;;
17228;SDS011;8731;50.364;8.958;2023-08-17T10:04:56;1.20;;;1.10;;
17228;SDS011;8731;50.364;8.958;2023-08-17T10:09:21;2.85;;;1.30;;
17228;SDS011;8731;50.364;8.958;2023-08-17T10:13:51;2.88;;;1.30;;
17228;SDS011;8731;50.364;8.958;2023-08-17T10:18:22;3.00;;;1.38;;
17228;SDS011;8731;50.364;8.958;2023-08-17T10:22:59;3.05;;;1.38;;
17228;SDS011;8731;50.364;8.958;2023-08-17T10:27:33;3.83;;;1.20;;
17228;SDS011;8731;50.364;8.958;2023-08-17T10:31:56;1.50;;;1.00;;
17228;SDS011;8731;50.364;8.958;2023-08-17T10:36:22;2.45;;;1.20;;
17228;SDS011;8731;50.364;8.958;2023-08-17T10:40:45;1.42;;;1.10;;
17228;SDS011;8731;50.364;8.958;2023-08-17T10:45:32;1.10;;;1.00;;
17228;SDS011;8731;50.364;8.958;2023-08-17T10:49:59;1.58;;;1.17;;
17228;SDS011;8731;50.364;8.958;2023-08-17T10:54:36;0.90;;;0.90;;
17228;SDS011;8731;50.364;8.958;2023-08-17T10:58:59;2.08;;;1.27;;
17228;SDS011;8731;50.364;8.958;2023-08-17T11:03:22;2.17;;;1.02;;
17228;SDS011;8731;50.364;8.958;2023-08-17T11:07:45;2.05;;;1.05;;
17228;SDS011;8731;50.364;8.958;2023-08-17T11:16:52;1.15;;;0.73;;
17228;SDS011;8731;50.364;8.958;2023-08-17T11:21:14;1.02;;;0.93;;
17228;SDS011;8731;50.364;8.958;2023-08-17T11:25:37;3.00;;;1.27;;
17228;SDS011;8731;50.364;8.958;2023-08-17T11:30:01;2.08;;;1.20;;
17228;SDS011;8731;50.364;8.958;2023-08-17T11:34:25;1.73;;;1.00;;
17228;SDS011;8731;50.364;8.958;2023-08-17T11:38:49;2.05;;;1.00;;
17228;SDS011;8731;50.364;8.958;2023-08-17T11:43:11;1.42;;;1.08;;
17228;SDS011;8731;50.364;8.958;2023-08-17T11:47:35;1.20;;;1.00;;
17228;SDS011;8731;50.364;8.958;2023-08-17T11:51:59;1.13;;;0.95;;
17228;SDS011;8731;50.364;8.958;2023-08-17T11:56:22;1.20;;;1.05;;
17228;SDS011;8731;50.364;8.958;2023-08-17T12:00:44;2.75;;;1.17;;
17228;SDS011;8731;50.364;8.958;2023-08-17T12:05:08;1.65;;;1.35;;
17228;SDS011;8731;50.364;8.958;2023-08-17T12:09:32;1.80;;;1.15;;
17228;SDS011;8731;50.364;8.958;2023-08-17T12:13:54;1.83;;;1.13;;
17228;SDS011;8731;50.364;8.958;2023-08-17T12:18:18;1.65;;;1.23;;
17228;SDS011;8731;50.364;8.958;2023-08-17T12:22:44;2.70;;;1.52;;
17228;SDS011;8731;50.364;8.958;2023-08-17T12:27:07;2.80;;;1.20;;
17228;SDS011;8731;50.364;8.958;2023-08-17T12:31:30;2.03;;;1.30;;
17228;SDS011;8731;50.364;8.958;2023-08-17T12:35:53;2.88;;;1.60;;
17228;SDS011;8731;50.364;8.958;2023-08-17T12:40:17;1.30;;;1.17;;
17228;SDS011;8731;50.364;8.958;2023-08-17T12:44:40;1.13;;;1.02;;
17228;SDS011;8731;50.364;8.958;2023-08-17T12:49:02;1.25;;;1.15;;
17228;SDS011;8731;50.364;8.958;2023-08-17T12:53:25;2.15;;;1.30;;
17228;SDS011;8731;50.364;8.958;2023-08-17T12:57:49;1.50;;;1.40;;
17228;SDS011;8731;50.364;8.958;2023-08-17T13:02:11;1.50;;;1.40;;
17228;SDS011;8731;50.364;8.958;2023-08-17T13:06:33;2.08;;;1.27;;
17228;SDS011;8731;50.364;8.958;2023-08-17T13:10:56;3.03;;;1.00;;
17228;SDS011;8731;50.364;8.958;2023-08-17T13:15:19;1.48;;;1.38;;
17228;SDS011;8731;50.364;8.958;2023-08-17T13:19:42;1.77;;;1.30;;
17228;SDS011;8731;50.364;8.958;2023-08-17T13:24:04;1.75;;;1.17;;
17228;SDS011;8731;50.364;8.958;2023-08-17T13:28:27;1.67;;;1.58;;
17228;SDS011;8731;50.364;8.958;2023-08-17T13:32:51;2.22;;;1.58;;
17228;SDS011;8731;50.364;8.958;2023-08-17T13:37:14;2.38;;;1.55;;
17228;SDS011;8731;50.364;8.958;2023-08-17T13:41:36;1.60;;;1.50;;
17228;SDS011;8731;50.364;8.958;2023-08-17T13:45:58;1.55;;;1.30;;
17228;SDS011;8731;50.364;8.958;2023-08-17T13:50:22;1.77;;;1.40;;
17228;SDS011;8731;50.364;8.958;2023-08-17T13:54:44;2.05;;;1.70;;
17228;SDS011;8731;50.364;8.958;2023-08-17T13:59:07;2.45;;;1.77;;
17228;SDS011;8731;50.364;8.958;2023-08-17T14:03:29;3.40;;;1.55;;
17228;SDS011;8731;50.364;8.958;2023-08-17T14:07:53;2.22;;;1.35;;
17228;SDS011;8731;50.364;8.958;2023-08-17T14:12:15;1.95;;;1.40;;
17228;SDS011;8731;50.364;8.958;2023-08-17T14:16:37;1.30;;;1.20;;
17228;SDS011;8731;50.364;8.958;2023-08-17T14:21:00;2.97;;;1.60;;
17228;SDS011;8731;50.364;8.958;2023-08-17T14:25:23;1.30;;;1.20;;
17228;SDS011;8731;50.364;8.958;2023-08-17T14:29:46;1.17;;;1.10;;
17228;SDS011;8731;50.364;8.958;2023-08-17T14:34:08;1.45;;;1.20;;
17228;SDS011;8731;50.364;8.958;2023-08-17T14:38:30;2.85;;;1.58;;
17228;SDS011;8731;50.364;8.958;2023-08-17T14:42:57;2.22;;;1.10;;
17228;SDS011;8731;50.364;8.958;2023-08-17T14:47:19;2.75;;;1.23;;
17228;SDS011;8731;50.364;8.958;2023-08-17T14:51:41;2.75;;;1.50;;
17228;SDS011;8731;50.364;8.958;2023-08-17T14:56:04;1.52;;;1.35;;
17228;SDS011;8731;50.364;8.958;2023-08-17T15:00:28;2.77;;;1.50;;
17228;SDS011;8731;50.364;8.958;2023-08-17T15:04:50;2.95;;;1.40;;
17228;SDS011;8731;50.364;8.958;2023-08-17T15:09:13;2.43;;;1.37;;
17228;SDS011;8731;50.364;8.958;2023-08-17T15:13:35;2.80;;;1.53;;
17228;SDS011;8731;50.364;8.958;2023-08-17T15:17:59;5.37;;;1.40;;
17228;SDS011;8731;50.364;8.958;2023-08-17T15:22:21;1.80;;;1.30;;
17228;SDS011;8731;50.364;8.958;2023-08-17T15:26:44;1.80;;;1.20;;
17228;SDS011;8731;50.364;8.958;2023-08-17T15:31:07;5.80;;;1.43;;
17228;SDS011;8731;50.364;8.958;2023-08-17T15:35:34;1.83;;;1.40;;
17228;SDS011;8731;50.364;8.958;2023-08-17T15:39:56;2.53;;;1.20;;
17228;SDS011;8731;50.364;8.958;2023-08-17T15:44:19;1.70;;;1.50;;
17228;SDS011;8731;50.364;8.958;2023-08-17T15:48:41;2.50;;;1.40;;
17228;SDS011;8731;50.364;8.958;2023-08-17T15:53:05;1.30;;;1.10;;
17228;SDS011;8731;50.364;8.958;2023-08-17T15:57:28;2.47;;;1.40;;
17228;SDS011;8731;50.364;8.958;2023-08-17T16:01:51;4.10;;;1.43;;
17228;SDS011;8731;50.364;8.958;2023-08-17T16:06:13;3.47;;;1.60;;
17228;SDS011;8731;50.364;8.958;2023-08-17T16:10:37;1.80;;;1.50;;
17228;SDS011;8731;50.364;8.958;2023-08-17T16:15:00;1.87;;;1.50;;
17228;SDS011;8731;50.364;8.958;2023-08-17T16:19:22;2.53;;;1.27;;
17228;SDS011;8731;50.364;8.958;2023-08-17T16:23:45;4.13;;;1.67;;
17228;SDS011;8731;50.364;8.958;2023-08-17T16:28:08;1.50;;;1.40;;
17228;SDS011;8731;50.364;8.958;2023-08-17T16:32:31;3.13;;;1.60;;
17228;SDS011;8731;50.364;8.958;2023-08-17T16:36:53;1.80;;;1.30;;
17228;SDS011;8731;50.364;8.958;2023-08-17T16:41:15;1.40;;;1.30;;
17228;SDS011;8731;50.364;8.958;2023-08-17T16:45:39;1.60;;;1.47;;
17228;SDS011;8731;50.364;8.958;2023-08-17T16:50:02;1.53;;;1.43;;
17228;SDS011;8731;50.364;8.958;2023-08-17T16:54:24;1.43;;;1.23;;
17228;SDS011;8731;50.364;8.958;2023-08-17T16:58:47;1.87;;;1.30;;
17228;SDS011;8731;50.364;8.958;2023-08-17T17:03:10;3.00;;;1.40;;
17228;SDS011;8731;50.364;8.958;2023-08-17T17:07:33;1.20;;;1.00;;
17228;SDS011;8731;50.364;8.958;2023-08-17T17:11:55;1.37;;;1.23;;
17228;SDS011;8731;50.364;8.958;2023-08-17T17:16:18;3.03;;;1.50;;
17228;SDS011;8731;50.364;8.958;2023-08-17T17:20:42;2.07;;;1.30;;
17228;SDS011;8731;50.364;8.958;2023-08-17T17:25:05;1.50;;;1.40;;
17228;SDS011;8731;50.364;8.958;2023-08-17T17:29:28;1.40;;;1.30;;
17228;SDS011;8731;50.364;8.958;2023-08-17T17:33:51;1.80;;;1.37;;
17228;SDS011;8731;50.364;8.958;2023-08-17T17:38:14;1.43;;;1.33;;
17228;SDS011;8731;50.364;8.958;2023-08-17T17:42:37;1.50;;;1.17;;
17228;SDS011;8731;50.364;8.958;2023-08-17T17:46:59;1.23;;;1.13;;
17228;SDS011;8731;50.364;8.958;2023-08-17T17:51:21;1.83;;;1.33;;
17228;SDS011;8731;50.364;8.958;2023-08-17T17:55:45;1.97;;;1.50;;
17228;SDS011;8731;50.364;8.958;2023-08-17T18:00:07;1.43;;;1.33;;
17228;SDS011;8731;50.364;8.958;2023-08-17T18:04:36;1.70;;;1.60;;
17228;SDS011;8731;50.364;8.958;2023-08-17T18:08:59;3.73;;;2.40;;
17228;SDS011;8731;50.364;8.958;2023-08-17T18:13:22;3.20;;;1.40;;
17228;SDS011;8731;50.364;8.958;2023-08-17T18:17:44;1.93;;;1.73;;
17228;SDS011;8731;50.364;8.958;2023-08-17T18:22:07;2.47;;;1.60;;
17228;SDS011;8731;50.364;8.958;2023-08-17T18:26:29;3.43;;;1.60;;
17228;SDS011;8731;50.364;8.958;2023-08-17T18:30:53;2.80;;;1.83;;
17228;SDS011;8731;50.364;8.958;2023-08-17T18:35:15;2.17;;;1.60;;
17228;SDS011;8731;50.364;8.958;2023-08-17T18:39:37;2.40;;;1.60;;
17228;SDS011;8731;50.364;8.958;2023-08-17T18:44:00;2.33;;;1.70;;
17228;SDS011;8731;50.364;8.958;2023-08-17T18:48:24;2.47;;;1.90;;
17228;SDS011;8731;50.364;8.958;2023-08-17T18:52:46;1.90;;;1.70;;
17228;SDS011;8731;50.364;8.958;2023-08-17T18:57:08;4.73;;;1.70;;
17228;SDS011;8731;50.364;8.958;2023-08-17T19:01:31;1.87;;;1.70;;
17228;SDS011;8731;50.364;8.958;2023-08-17T19:05:54;2.13;;;1.83;;
17228;SDS011;8731;50.364;8.958;2023-08-17T19:10:17;2.13;;;1.63;;
17228;SDS011;8731;50.364;8.958;2023-08-17T19:14:39;4.80;;;2.00;;
17228;SDS011;8731;50.364;8.958;2023-08-17T19:19:01;4.50;;;2.67;;
17228;SDS011;8731;50.364;8.958;2023-08-17T19:23:25;3.47;;;2.00;;
17228;SDS011;8731;50.364;8.958;2023-08-17T19:27:48;2.27;;;2.00;;
17228;SDS011;8731;50.364;8.958;2023-08-17T19:32:10;3.73;;;1.70;;
17228;SDS011;8731;50.364;8.958;2023-08-17T19:36:32;2.20;;;1.83;;
17228;SDS011;8731;50.364;8.958;2023-08-17T19:40:56;3.83;;;1.90;;
17228;SDS011;8731;50.364;8.958;2023-08-17T19:45:18;3.27;;;2.00;;
17228;SDS011;8731;50.364;8.958;2023-08-17T19:49:41;5.57;;;2.03;;
17228;SDS011;8731;50.364;8.958;2023-08-17T19:54:04;3.07;;;2.07;;
17228;SDS011;8731;50.364;8.958;2023-08-17T19:58:28;2.23;;;2.00;;
17228;SDS011;8731;50.364;8.958;2023-08-17T20:02:50;7.33;;;2.63;;
17228;SDS011;8731;50.364;8.958;2023-08-17T20:07:15;3.63;;;2.00;;
17228;SDS011;8731;50.364;8.958;2023-08-17T20:11:38;6.03;;;2.30;;
17228;SDS011;8731;50.364;8.958;2023-08-17T20:16:02;4.40;;;1.90;;
17228;SDS011;8731;50.364;8.958;2023-08-17T20:20:25;4.50;;;2.30;;
17228;SDS011;8731;50.364;8.958;2023-08-17T20:24:48;4.97;;;2.87;;
17228;SDS011;8731;50.364;8.958;2023-08-17T20:29:10;4.27;;;2.57;;
17228;SDS011;8731;50.364;8.958;2023-08-17T20:33:34;3.23;;;2.30;;
17228;SDS011;8731;50.364;8.958;2023-08-17T20:37:56;2.33;;;2.10;;
17228;SDS011;8731;50.364;8.958;2023-08-17T20:42:19;3.93;;;2.53;;
17228;SDS011;8731;50.364;8.958;2023-08-17T20:46:41;5.17;;;2.40;;
17228;SDS011;8731;50.364;8.958;2023-08-17T20:51:04;5.73;;;2.80;;
17228;SDS011;8731;50.364;8.958;2023-08-17T20:55:27;4.63;;;2.83;;
17228;SDS011;8731;50.364;8.958;2023-08-17T20:59:50;4.03;;;2.90;;
17228;SDS011;8731;50.364;8.958;2023-08-17T21:04:12;3.73;;;2.40;;
17228;SDS011;8731;50.364;8.958;2023-08-17T21:08:35;3.23;;;2.27;;
17228;SDS011;8731;50.364;8.958;2023-08-17T21:12:58;7.13;;;2.87;;
17228;SDS011;8731;50.364;8.958;2023-08-17T21:17:20;4.03;;;2.90;;
17228;SDS011;8731;50.364;8.958;2023-08-17T21:21:42;4.23;;;3.57;;
17228;SDS011;8731;50.364;8.958;2023-08-17T21:26:06;6.30;;;3.27;;
17228;SDS011;8731;50.364;8.958;2023-08-17T21:30:28;4.07;;;2.47;;
17228;SDS011;8731;50.364;8.958;2023-08-17T21:34:52;3.60;;;2.57;;
17228;SDS011;8731;50.364;8.958;2023-08-17T21:39:14;5.87;;;2.63;;
17228;SDS011;8731;50.364;8.958;2023-08-17T21:43:38;5.53;;;3.10;;
17228;SDS011;8731;50.364;8.958;2023-08-17T21:48:00;7.23;;;2.70;;
17228;SDS011;8731;50.364;8.958;2023-08-17T21:52:23;4.17;;;3.20;;
17228;SDS011;8731;50.364;8.958;2023-08-17T21:56:45;7.47;;;3.13;;
17228;SDS011;8731;50.364;8.958;2023-08-17T22:01:09;4.67;;;2.70;;
17228;SDS011;8731;50.364;8.958;2023-08-17T22:05:31;2.87;;;2.50;;
17228;SDS011;8731;50.364;8.958;2023-08-17T22:09:53;3.63;;;2.93;;
17228;SDS011;8731;50.364;8.958;2023-08-17T22:14:16;5.17;;;3.40;;
17228;SDS011;8731;50.364;8.958;2023-08-17T22:18:40;7.60;;;3.00;;
17228;SDS011;8731;50.364;8.958;2023-08-17T22:23:02;4.83;;;2.80;;
17228;SDS011;8731;50.364;8.958;2023-08-17T22:27:25;5.10;;;3.10;;
17228;SDS011;8731;50.364;8.958;2023-08-17T22:31:47;6.57;;;3.30;;
17228;SDS011;8731;50.364;8.958;2023-08-17T22:36:11;5.27;;;3.20;;
17228;SDS011;8731;50.364;8.958;2023-08-17T22:40:33;5.30;;;3.10;;
17228;SDS011;8731;50.364;8.958;2023-08-17T22:44:55;4.53;;;2.83;;
17228;SDS011;8731;50.364;8.958;2023-08-17T22:49:18;5.93;;;3.40;;
17228;SDS011;8731;50.364;8.958;2023-08-17T22:53:42;5.87;;;3.87;;
17228;SDS011;8731;50.364;8.958;2023-08-17T22:58:04;4.77;;;3.10;;
17228;SDS011;8731;50.364;8.958;2023-08-17T23:02:26;3.80;;;3.10;;
17228;SDS011;8731;50.364;8.958;2023-08-17T23:06:49;4.13;;;2.93;;
17228;SDS011;8731;50.364;8.958;2023-08-17T23:11:13;6.07;;;2.93;;
17228;SDS011;8731;50.364;8.958;2023-08-17T23:15:36;6.93;;;3.20;;
17228;SDS011;8731;50.364;8.958;2023-08-17T23:19:58;4.90;;;2.93;;
17228;SDS011;8731;50.364;8.958;2023-08-17T23:24:21;4.53;;;3.60;;
17228;SDS011;8731;50.364;8.958;2023-08-17T23:28:44;4.93;;;3.63;;
17228;SDS011;8731;50.364;8.958;2023-08-17T23:33:07;7.87;;;3.60;;
17228;SDS011;8731;50.364;8.958;2023-08-17T23:37:30;4.37;;;3.67;;
17228;SDS011;8731;50.364;8.958;2023-08-17T23:41:52;4.63;;;3.20;;
17228;SDS011;8731;50.364;8.958;2023-08-17T23:46:16;4.87;;;3.97;;
17228;SDS011;8731;50.364;8.958;2023-08-17T23:50:38;6.17;;;3.37;;
17228;SDS011;8731;50.364;8.958;2023-08-17T23:55:00;4.23;;;3.13;;
17228;SDS011;8731;50.364;8.958;2023-08-17T23:59:23;4.27;;;3.03;;
